Time;durP1;ratioP1;P1;durP2;ratioP2;P2;SDS_P1;SDS_P2;PMS_P1;PMS_P2;Temp;Humidity;BMP_temperature;BMP_pressure;BME280_temperature;BME280_humidity;BME280_pressure;Samples;Min_cycle;Max_cycle;Signal;HPM_P1;HPM_P2
2022/12/27 00:01:22;;;;;;;0.70;0.70;;;;;;;7.28;100.00;96992.28;4991154;28;101822;-68
2022/12/27 00:03:50;;;;;;;1.83;0.57;;;;;;;7.26;100.00;96999.63;4991005;28;102589;-68
2022/12/27 00:06:21;;;;;;;0.60;0.60;;;;;;;7.23;100.00;97003.53;4990668;28;103138;-68
2022/12/27 00:08:48;;;;;;;0.87;0.87;;;;;;;7.21;100.00;97010.06;4994514;28;101911;-68
2022/12/27 00:11:18;;;;;;;0.70;0.70;;;;;;;7.16;100.00;97016.00;4988586;28;104036;-68
2022/12/27 00:13:47;;;;;;;0.70;0.70;;;;;;;7.15;100.00;97024.13;4990806;28;101810;-69
2022/12/27 00:16:16;;;;;;;0.70;0.70;;;;;;;7.08;100.00;97028.63;4991089;28;102906;-69
2022/12/27 00:18:44;;;;;;;0.70;0.70;;;;;;;7.11;100.00;97029.03;4988802;28;104371;-68
2022/12/27 00:21:13;;;;;;;1.20;1.10;;;;;;;7.11;100.00;97028.22;4989238;28;101964;-68
2022/12/27 00:23:47;;;;;;;0.60;0.60;;;;;;;7.09;100.00;97032.91;4990577;28;102818;-68
2022/12/27 00:26:17;;;;;;;0.70;0.70;;;;;;;7.06;100.00;97033.34;4988838;28;103815;-68
2022/12/27 00:28:45;;;;;;;0.50;0.50;;;;;;;7.09;100.00;97041.66;4988949;28;101898;-68
2022/12/27 00:31:13;;;;;;;0.87;0.80;;;;;;;7.16;100.00;97036.31;4991900;28;105091;-68
2022/12/27 00:33:41;;;;;;;0.70;0.70;;;;;;;7.15;100.00;97037.34;4989158;28;102247;-68
2022/12/27 00:36:11;;;;;;;1.00;0.90;;;;;;;7.19;100.00;97027.97;4990855;28;102539;-68
2022/12/27 00:38:38;;;;;;;1.17;0.70;;;;;;;7.17;100.00;97043.22;4990005;28;103229;-68
2022/12/27 00:41:07;;;;;;;0.53;0.53;;;;;;;7.21;100.00;97049.72;4988908;28;101906;-68
2022/12/27 00:43:34;;;;;;;1.53;0.70;;;;;;;7.25;100.00;97051.72;4989172;28;105444;-68
2022/12/27 00:46:02;;;;;;;0.70;0.70;;;;;;;7.30;100.00;97065.13;4988402;28;104622;-68
2022/12/27 00:48:29;;;;;;;0.53;0.53;;;;;;;7.34;100.00;97071.63;4988550;28;102553;-68
2022/12/27 00:51:01;;;;;;;0.50;0.50;;;;;;;7.39;100.00;97068.31;4988896;28;104856;-68
2022/12/27 00:53:29;;;;;;;0.63;0.63;;;;;;;7.42;100.00;97081.13;4991721;28;105007;-68
2022/12/27 00:55:56;;;;;;;1.30;0.90;;;;;;;7.43;100.00;97080.09;4990472;28;102378;-68
2022/12/27 00:58:24;;;;;;;1.10;0.70;;;;;;;7.43;100.00;97083.56;4988216;28;105620;-68
2022/12/27 01:00:51;;;;;;;0.60;0.60;;;;;;;7.45;100.00;97078.88;4988947;28;102017;-68
2022/12/27 01:03:19;;;;;;;0.70;0.70;;;;;;;7.45;100.00;97088.63;4988765;28;104205;-68
2022/12/27 01:05:46;;;;;;;0.50;0.50;;;;;;;7.37;100.00;97083.63;4988411;28;104094;-68
2022/12/27 01:08:13;;;;;;;0.50;0.50;;;;;;;7.37;100.00;97091.53;4988930;28;103883;-68
2022/12/27 01:10:41;;;;;;;0.73;0.30;;;;;;;7.33;100.00;97100.94;4990093;28;102885;-68
2022/12/27 01:13:08;;;;;;;0.30;0.30;;;;;;;7.27;100.00;97101.78;4987710;28;103720;-68
2022/12/27 01:15:36;;;;;;;0.40;0.40;;;;;;;7.21;100.00;97098.13;4975756;28;101823;-68
2022/12/27 01:18:03;;;;;;;0.83;0.40;;;;;;;7.19;100.00;97094.91;4987883;28;105559;-68
2022/12/27 01:20:30;;;;;;;0.40;0.40;;;;;;;7.14;100.00;97101.84;4988625;28;102001;-68
2022/12/27 01:22:57;;;;;;;0.30;0.30;;;;;;;7.09;100.00;97114.91;4988534;28;104118;-68
2022/12/27 01:25:25;;;;;;;0.50;0.50;;;;;;;7.04;100.00;97106.78;4987793;28;105792;-68
2022/12/27 01:27:52;;;;;;;0.40;0.40;;;;;;;6.98;100.00;97118.22;4987697;28;101879;-68
2022/12/27 01:30:19;;;;;;;0.33;0.33;;;;;;;6.93;100.00;97132.03;4989869;28;101726;-68
2022/12/27 01:32:47;;;;;;;1.10;0.60;;;;;;;6.91;100.00;97138.56;4989121;28;103054;-68
2022/12/27 01:35:14;;;;;;;0.33;0.33;;;;;;;6.84;100.00;97148.34;4988297;28;101868;-69
2022/12/27 01:37:41;;;;;;;0.47;0.47;;;;;;;6.82;100.00;97134.53;4992782;28;102426;-69
2022/12/27 01:40:10;;;;;;;0.40;0.40;;;;;;;6.82;100.00;97150.41;4987907;28;101862;-69
2022/12/27 01:42:51;;;;;;;1.23;0.80;;;;;;;6.81;100.00;97140.84;4988018;28;103944;-69
2022/12/27 01:45:20;;;;;;;1.00;0.87;;;;;;;6.84;100.00;97148.34;4989004;28;103164;-69
2022/12/27 01:47:54;;;;;;;0.50;0.50;;;;;;;6.83;100.00;97152.00;4989401;28;101777;-69
2022/12/27 01:50:27;;;;;;;0.77;0.50;;;;;;;6.83;100.00;97152.00;4989725;28;103039;-69
2022/12/27 01:53:02;;;;;;;1.07;0.50;;;;;;;6.80;100.00;97147.13;4987343;28;105493;-69
2022/12/27 01:55:36;;;;;;;0.50;0.50;;;;;;;6.83;100.00;97152.81;4989605;28;101856;-69
2022/12/27 01:58:10;;;;;;;0.53;0.47;;;;;;;6.83;100.00;97152.00;4988048;28;105370;-69
2022/12/27 02:00:39;;;;;;;0.60;0.60;;;;;;;6.84;100.00;97161.56;4990992;28;105529;-69
2022/12/27 02:03:07;;;;;;;0.53;0.53;;;;;;;6.84;100.00;97157.09;4987943;28;105170;-69
2022/12/27 02:05:40;;;;;;;0.70;0.70;;;;;;;6.84;100.00;97157.09;4989103;28;102528;-69
2022/12/27 02:08:36;;;;;;;0.63;0.60;;;;;;;6.80;100.00;97147.13;4989342;28;102107;-68
2022/12/27 02:11:04;;;;;;;0.93;0.60;;;;;;;6.76;100.00;97153.88;4989494;28;102695;-68
2022/12/27 02:13:35;;;;;;;0.60;0.60;;;;;;;6.71;100.00;97153.69;4987145;28;104269;-68
2022/12/27 02:16:02;;;;;;;0.50;0.50;;;;;;;6.69;100.00;97145.97;4989592;28;101742;-68
2022/12/27 02:18:31;;;;;;;1.23;1.03;;;;;;;6.66;100.00;97159.56;4987990;28;103591;-68
2022/12/27 02:21:27;;;;;;;0.70;0.70;;;;;;;6.63;100.00;97170.56;4995315;28;102749;-68
2022/12/27 02:24:13;;;;;;;1.73;0.90;;;;;;;6.59;100.00;97169.34;4991260;28;104793;-68
2022/12/27 02:26:51;;;;;;;0.70;0.70;;;;;;;6.57;100.00;97168.75;4990652;28;104066;-68
2022/12/27 02:29:47;;;;;;;0.80;0.80;;;;;;;6.52;100.00;97191.53;4992397;28;101877;-68
2022/12/27 02:32:21;;;;;;;1.00;1.00;;;;;;;6.55;100.00;97191.91;4992596;28;102414;-69
2022/12/27 02:34:57;;;;;;;2.03;0.77;;;;;;;6.56;100.00;97200.66;4991840;28;103276;-69
2022/12/27 02:37:29;;;;;;;0.97;0.73;;;;;;;6.56;100.00;97182.16;4992778;28;102254;-68
2022/12/27 02:53:02;;;;;;;0.60;0.60;;;;;;;6.54;100.00;97195.59;4992675;28;102360;-69
2022/12/27 02:54:35;;;;;;;1.07;1.07;;;;;;;6.67;100.00;97197.41;4930814;28;102767;-69
2022/12/27 02:57:12;;;;;;;1.33;0.90;;;;;;;6.66;100.00;97201.84;4983455;28;103095;-69
2022/12/27 03:06:38;;;;;;;2.27;0.90;;;;;;;6.53;100.00;97230.97;4991727;28;102981;-69
2022/12/27 03:08:47;;;;;;;1.00;0.90;;;;;;;6.56;100.00;97229.72;4991749;28;101819;-69
2022/12/27 03:16:58;;;;;;;1.67;0.90;;;;;;;6.54;100.00;97222.00;4990537;28;105507;-68
2022/12/27 03:33:26;;;;;;;1.03;0.90;;;;;;;6.40;100.00;97267.13;4990331;28;105096;-68
2022/12/27 03:38:57;;;;;;;2.87;1.20;;;;;;;6.29;100.00;97265.91;4991811;28;102253;-68
2022/12/27 03:44:24;;;;;;;1.10;1.00;;;;;;;6.30;100.00;97270.19;4991728;28;101934;-68
2022/12/27 03:46:54;;;;;;;0.87;0.83;;;;;;;6.20;100.00;97282.13;4990147;28;103337;-68
2022/12/27 03:49:26;;;;;;;1.63;1.00;;;;;;;6.19;100.00;97299.00;4990706;28;102735;-68
2022/12/27 03:52:01;;;;;;;1.23;1.07;;;;;;;6.17;100.00;97286.00;4991577;28;102013;-68
2022/12/27 03:54:32;;;;;;;2.20;1.10;;;;;;;6.12;100.00;97290.25;4991387;28;102309;-68
2022/12/27 03:57:02;;;;;;;1.27;0.93;;;;;;;6.07;100.00;97303.25;4990847;28;102496;-68
2022/12/27 03:59:29;;;;;;;2.17;0.97;;;;;;;6.06;100.00;97296.34;4993543;28;101918;-68
2022/12/27 04:01:56;;;;;;;1.80;1.20;;;;;;;6.08;100.00;97308.34;4990516;28;102356;-68
2022/12/27 04:04:23;;;;;;;1.17;1.03;;;;;;;6.14;100.00;97314.63;4991218;28;101805;-69
2022/12/27 04:06:50;;;;;;;1.63;1.30;;;;;;;6.13;100.00;97318.28;4991297;28;102296;-68
2022/12/27 04:36:45;;;;;;;2.13;1.63;;;;;;;5.64;100.00;97375.75;4989179;28;105549;-68
2022/12/27 04:39:12;;;;;;;3.33;2.60;;;;;;;5.57;100.00;97380.97;4990037;28;102557;-69
2022/12/27 04:55:28;;;;;;;1.60;1.50;;;;;;;5.50;100.00;97411.78;4988794;28;101909;-69
2022/12/27 04:57:57;;;;;;;1.73;1.63;;;;;;;5.52;100.00;97420.31;4990253;28;102403;-69
2022/12/27 05:03:15;;;;;;;1.57;1.37;;;;;;;5.39;100.00;97429.97;4988793;28;102325;-68
2022/12/27 05:05:44;;;;;;;1.87;1.30;;;;;;;5.35;100.00;97431.38;4990468;28;102293;-69
2022/12/27 05:13:59;;;;;;;1.70;1.33;;;;;;;5.30;100.00;97454.88;4963814;28;103030;-69
2022/12/27 05:16:27;;;;;;;3.13;1.40;;;;;;;5.27;100.00;97447.34;4990162;28;102280;-69
2022/12/27 05:18:54;;;;;;;1.80;1.30;;;;;;;5.19;100.00;97452.75;4990065;28;102388;-69
2022/12/27 05:21:20;;;;;;;1.10;1.00;;;;;;;5.17;100.00;97452.13;4987956;28;104282;-68
2022/12/27 05:26:34;;;;;;;2.10;1.37;;;;;;;5.16;100.00;97450.50;4989912;28;102771;-68
2022/12/27 05:29:02;;;;;;;3.30;1.50;;;;;;;5.15;100.00;97464.69;4988769;28;102743;-68
2022/12/27 05:31:29;;;;;;;2.70;1.40;;;;;;;5.11;100.00;97479.25;4991883;28;102332;-68
2022/12/27 05:33:57;;;;;;;3.80;1.80;;;;;;;5.08;100.00;97487.56;4989227;28;102752;-68
2022/12/27 05:36:24;;;;;;;2.20;1.63;;;;;;;5.06;100.00;97486.91;4989821;28;101760;-68
2022/12/27 05:38:52;;;;;;;1.63;1.53;;;;;;;5.15;100.00;97496.34;4989640;28;102575;-68
2022/12/27 05:41:19;;;;;;;2.67;1.50;;;;;;;5.06;100.00;97500.09;4988931;28;102604;-68
2022/12/27 05:43:46;;;;;;;2.43;1.53;;;;;;;5.06;100.00;97508.00;4989392;28;101863;-68
2022/12/27 05:46:17;;;;;;;3.80;2.03;;;;;;;5.00;100.00;97504.31;4988344;28;105180;-68
2022/12/27 05:48:45;;;;;;;2.80;1.60;;;;;;;4.91;100.00;97502.00;4989199;28;102534;-68
2022/12/27 05:51:14;;;;;;;1.63;1.53;;;;;;;4.97;100.00;97498.59;4987756;28;101881;-68
2022/12/27 05:53:42;;;;;;;1.50;1.40;;;;;;;4.95;100.00;97505.88;4973593;28;105550;-68
2022/12/27 05:56:13;;;;;;;2.83;1.70;;;;;;;4.99;100.00;97507.97;4988161;28;101818;-68
2022/12/27 05:58:40;;;;;;;3.17;1.87;;;;;;;4.94;100.00;97504.25;4989692;28;102390;-69
2022/12/27 06:01:09;;;;;;;2.30;1.63;;;;;;;4.96;100.00;97512.78;4987429;28;105451;-68
2022/12/27 06:03:37;;;;;;;3.40;1.70;;;;;;;4.89;100.00;97522.44;4989389;28;102024;-68
2022/12/27 06:06:05;;;;;;;2.03;1.60;;;;;;;4.90;100.00;97519.63;4989260;28;102873;-69
2022/12/27 06:08:32;;;;;;;2.17;1.80;;;;;;;4.89;100.00;97517.16;4988526;28;102626;-69
2022/12/27 06:11:04;;;;;;;6.43;4.20;;;;;;;4.84;100.00;97514.28;4989380;28;101911;-68
2022/12/27 06:13:31;;;;;;;10.93;6.73;;;;;;;4.90;100.00;97510.88;4989184;28;102365;-68
2022/12/27 06:16:00;;;;;;;12.03;7.57;;;;;;;4.85;100.00;97508.03;4992142;28;102568;-69
2022/12/27 06:18:28;;;;;;;7.53;5.40;;;;;;;4.87;100.00;97503.38;4987534;28;105799;-68
2022/12/27 06:21:01;;;;;;;4.37;3.97;;;;;;;4.84;100.00;97503.72;4988553;28;102543;-68
2022/12/27 06:23:29;;;;;;;4.27;3.07;;;;;;;4.85;100.00;97489.56;4987754;28;101776;-69
2022/12/27 06:25:56;;;;;;;2.43;2.23;;;;;;;4.92;100.00;97491.25;4989157;28;102862;-69
2022/12/27 06:28:23;;;;;;;2.80;2.37;;;;;;;4.96;100.00;97503.03;4987966;28;102805;-68
2022/12/27 06:30:50;;;;;;;3.17;2.50;;;;;;;4.86;100.00;97502.53;4989131;28;102316;-68
2022/12/27 06:33:17;;;;;;;2.97;2.07;;;;;;;4.91;100.00;97504.63;4989060;28;102676;-68
2022/12/27 06:35:44;;;;;;;3.63;2.33;;;;;;;4.97;100.00;97495.97;4988686;28;102813;-68
2022/12/27 06:38:12;;;;;;;4.20;2.90;;;;;;;4.94;100.00;97506.88;4992064;28;101759;-68
2022/12/27 06:40:39;;;;;;;4.83;2.93;;;;;;;4.95;100.00;97508.50;4986910;28;105483;-68
2022/12/27 06:43:07;;;;;;;3.57;2.70;;;;;;;4.98;100.00;97506.34;4988914;28;101802;-68
2022/12/27 06:45:34;;;;;;;3.80;3.40;;;;;;;4.96;100.00;97510.16;4997939;28;103676;-68
2022/12/27 06:48:02;;;;;;;3.53;3.10;;;;;;;4.95;100.00;97511.97;5007849;28;103141;-68
2022/12/27 06:50:29;;;;;;;4.17;3.00;;;;;;;4.93;100.00;97521.06;5007386;28;101900;-68
2022/12/27 06:52:56;;;;;;;3.00;2.70;;;;;;;4.86;100.00;97528.09;5008854;28;102358;-68
2022/12/27 06:55:25;;;;;;;4.43;2.87;;;;;;;4.85;100.00;97529.09;5006622;28;105486;-68
2022/12/27 06:57:52;;;;;;;2.53;2.33;;;;;;;4.89;100.00;97527.69;5010405;28;101979;-68
2022/12/27 07:00:19;;;;;;;3.57;2.50;;;;;;;4.88;100.00;97520.81;5008002;28;102671;-68
2022/12/27 07:02:47;;;;;;;4.40;2.63;;;;;;;4.88;100.00;97529.53;5007150;28;101902;-68
2022/12/27 07:05:15;;;;;;;4.47;2.83;;;;;;;4.92;100.00;97522.06;5007032;28;105196;-68
2022/12/27 07:07:42;;;;;;;3.70;2.57;;;;;;;4.90;100.00;97530.16;5011326;28;102477;-68
2022/12/27 07:10:09;;;;;;;4.17;2.97;;;;;;;4.91;100.00;97531.00;5010234;28;102252;-68
2022/12/27 07:12:42;;;;;;;5.23;3.87;;;;;;;4.83;100.00;97539.00;5011893;28;102372;-68
2022/12/27 07:15:09;;;;;;;6.07;4.03;;;;;;;4.82;100.00;97529.47;5011450;28;102779;-68
2022/12/27 07:17:38;;;;;;;6.80;4.40;;;;;;;4.85;100.00;97534.38;5011541;28;101883;-68
2022/12/27 07:20:06;;;;;;;4.03;3.50;;;;;;;4.82;100.00;97547.91;5012725;28;105547;-68
2022/12/27 07:22:34;;;;;;;3.63;3.10;;;;;;;4.72;100.00;97545.59;5011461;28;102262;-68
2022/12/27 07:25:01;;;;;;;3.40;3.10;;;;;;;4.78;100.00;97547.47;5011251;28;102358;-69
2022/12/27 07:27:28;;;;;;;5.00;3.70;;;;;;;4.74;100.00;97553.31;5010684;28;102517;-69
2022/12/27 07:29:57;;;;;;;4.90;4.37;;;;;;;4.83;100.00;97550.38;5010053;28;102131;-69
2022/12/27 07:32:25;;;;;;;5.10;4.60;;;;;;;4.84;100.00;97552.00;5011322;28;102348;-68
2022/12/27 07:34:52;;;;;;;4.70;4.30;;;;;;;4.84;100.00;97551.16;5008282;28;105094;-68
2022/12/27 07:37:19;;;;;;;5.07;4.47;;;;;;;4.85;100.00;97558.09;5009358;28;102243;-69
2022/12/27 07:39:46;;;;;;;4.70;4.30;;;;;;;4.74;100.00;97548.03;4991535;28;102833;-68
2022/12/27 07:42:14;;;;;;;4.57;4.17;;;;;;;4.76;100.00;97549.47;5009110;28;102558;-68
2022/12/27 07:44:41;;;;;;;4.17;3.77;;;;;;;4.74;100.00;97550.66;5010586;28;102365;-68
2022/12/27 07:47:10;;;;;;;5.47;3.23;;;;;;;4.68;100.00;97551.38;5009098;28;105589;-68
2022/12/27 07:49:37;;;;;;;3.63;3.33;;;;;;;4.71;100.00;97556.28;5006369;28;102485;-69
2022/12/27 07:52:04;;;;;;;7.37;3.40;;;;;;;4.69;100.00;97553.84;4989676;28;105525;-69
2022/12/27 07:54:31;;;;;;;4.10;3.23;;;;;;;4.63;100.00;97554.59;4992936;28;104268;-69
2022/12/27 07:56:58;;;;;;;4.13;3.00;;;;;;;4.77;100.00;97550.28;4989801;28;101878;-69
2022/12/27 07:59:26;;;;;;;3.53;3.20;;;;;;;4.85;100.00;97558.88;5006241;28;104837;-68
2022/12/27 08:02:06;;;;;;;3.43;3.10;;;;;;;4.91;100.00;97565.25;5000499;28;102964;-69
2022/12/27 08:04:37;;;;;;;3.33;3.03;;;;;;;4.86;100.00;97559.72;5014141;28;102446;-69
2022/12/27 08:07:09;;;;;;;3.50;3.00;;;;;;;4.93;100.00;97550.06;5010275;28;102581;-69
2022/12/27 08:09:39;;;;;;;3.17;2.70;;;;;;;5.00;100.00;97540.38;5006162;28;101839;-69
2022/12/27 08:12:08;;;;;;;3.03;2.83;;;;;;;4.90;100.00;97542.50;4993369;28;102295;-69
2022/12/27 08:14:35;;;;;;;4.60;2.80;;;;;;;4.88;100.00;97542.72;5010241;28;102717;-69
2022/12/27 08:17:06;;;;;;;3.13;2.93;;;;;;;4.96;100.00;97557.59;5008833;28;102482;-69
2022/12/27 08:19:35;;;;;;;4.53;3.57;;;;;;;4.91;100.00;97546.81;5010891;28;102353;-69
2022/12/27 08:22:04;;;;;;;3.80;3.00;;;;;;;5.00;100.00;97559.66;5010060;28;102571;-69
2022/12/27 08:24:31;;;;;;;5.10;4.07;;;;;;;5.04;100.00;97558.31;5010366;28;102205;-69
2022/12/27 08:26:58;;;;;;;5.10;4.43;;;;;;;4.98;100.00;97561.69;5011922;28;105646;-69
2022/12/27 08:29:25;;;;;;;5.27;4.77;;;;;;;5.08;100.00;97562.16;5009149;28;101904;-69
2022/12/27 08:31:53;;;;;;;5.70;5.10;;;;;;;5.13;100.00;97569.53;5010366;28;102387;-68
2022/12/27 08:34:20;;;;;;;8.07;5.30;;;;;;;5.13;100.00;97572.97;4997531;28;102659;-69
2022/12/27 08:36:52;;;;;;;5.70;5.10;;;;;;;5.23;100.00;97562.13;5010165;28;102258;-69
2022/12/27 08:39:19;;;;;;;6.17;5.00;;;;;;;5.39;100.00;97567.13;5005975;28;103945;-68
2022/12/27 08:41:46;;;;;;;6.60;5.63;;;;;;;5.43;100.00;97563.13;4988715;28;105481;-69
2022/12/27 08:44:13;;;;;;;7.07;5.30;;;;;;;5.55;100.00;97562.41;5010107;28;101743;-69
2022/12/27 08:46:40;;;;;;;5.33;4.57;;;;;;;5.56;100.00;97564.03;5009658;28;102652;-69
2022/12/27 08:49:07;;;;;;;3.77;3.47;;;;;;;5.64;100.00;97565.72;5013040;28;101837;-69
2022/12/27 08:51:34;;;;;;;4.47;3.30;;;;;;;5.67;100.00;97560.09;5009829;28;102873;-69
2022/12/27 08:54:03;;;;;;;3.93;3.53;;;;;;;5.75;100.00;97567.84;5009354;28;102531;-69
2022/12/27 08:56:30;;;;;;;6.40;5.00;;;;;;;5.61;100.00;97576.66;5010459;28;101717;-69
2022/12/27 08:58:57;;;;;;;9.83;6.20;;;;;;;5.61;100.00;97587.22;5008232;28;105456;-69
2022/12/27 09:01:24;;;;;;;13.47;8.40;;;;;;;5.51;100.00;97584.91;5009235;28;103101;-69
2022/12/27 09:03:51;;;;;;;12.27;8.93;;;;;;;5.53;100.00;97584.72;5009693;28;101813;-69
2022/12/27 09:06:21;;;;;;;15.10;10.80;;;;;;;5.50;100.00;97578.00;5009963;28;102293;-69
2022/12/27 09:08:49;;;;;;;12.33;9.40;;;;;;;5.56;100.00;97571.16;5011194;28;103014;-68
2022/12/27 09:11:19;;;;;;;15.43;10.70;;;;;;;5.54;100.00;97578.44;5009888;28;102269;-69
2022/12/27 09:13:47;;;;;;;13.50;10.30;;;;;;;5.46;100.00;97575.94;5007540;28;102464;-69
2022/12/27 09:16:18;;;;;;;13.17;10.97;;;;;;;5.44;100.00;97583.22;5007213;28;101826;-69
2022/12/27 09:18:48;;;;;;;13.23;10.37;;;;;;;5.46;100.00;97574.09;5007664;28;103529;-69
2022/12/27 09:21:17;;;;;;;19.90;14.13;;;;;;;5.36;100.00;97567.53;5006803;28;104966;-69
2022/12/27 09:23:44;;;;;;;16.33;13.90;;;;;;;5.47;100.00;97574.94;5006610;28;102764;-69
2022/12/27 09:26:14;;;;;;;15.70;13.33;;;;;;;5.56;100.00;97563.25;5007256;28;105236;-68
2022/12/27 09:28:42;;;;;;;5.90;4.80;;;;;;;5.65;100.00;97567.38;5006650;28;103010;-68
2022/12/27 09:31:11;;;;;;;5.47;4.43;;;;;;;5.74;100.00;97563.59;5012802;28;101976;-69
2022/12/27 09:33:39;;;;;;;5.57;4.60;;;;;;;5.77;100.00;97571.94;5007284;28;104112;-69
2022/12/27 09:36:11;;;;;;;5.20;4.63;;;;;;;5.63;100.00;97566.75;5010075;28;101833;-69
2022/12/27 09:38:38;;;;;;;7.07;4.57;;;;;;;5.68;100.00;97572.28;5007945;28;102620;-68
2022/12/27 09:41:14;;;;;;;5.40;4.47;;;;;;;5.78;100.00;97583.31;5007409;28;106005;-69
2022/12/27 09:43:54;;;;;;;5.30;4.80;;;;;;;5.90;100.00;97587.09;5009226;28;101989;-68
2022/12/27 09:46:28;;;;;;;4.70;4.23;;;;;;;5.69;100.00;97597.66;5009709;28;102293;-69
2022/12/27 09:48:56;;;;;;;5.23;3.80;;;;;;;5.64;100.00;97602.69;5008828;28;102526;-68
2022/12/27 09:51:29;;;;;;;6.97;3.73;;;;;;;5.76;100.00;97598.50;5008070;28;102457;-69
2022/12/27 09:54:02;;;;;;;4.27;3.37;;;;;;;5.91;100.00;97588.72;5010427;28;105365;-69
2022/12/27 09:56:32;;;;;;;5.23;3.87;;;;;;;5.84;100.00;97593.94;5009634;28;101745;-68
2022/12/27 09:59:09;;;;;;;5.27;3.70;;;;;;;5.82;100.00;97595.97;5004544;28;105150;-68
2022/12/27 10:01:39;;;;;;;4.37;3.70;;;;;;;6.10;100.00;97594.13;4988995;28;102419;-68
2022/12/27 10:04:13;;;;;;;4.90;3.53;;;;;;;6.18;100.00;97582.59;4993648;28;101911;-68
2022/12/27 10:06:57;;;;;;;4.37;2.87;;;;;;;6.13;100.00;97582.38;5009490;28;102266;-68
2022/12/27 10:09:51;;;;;;;1.93;1.77;;;;;;;6.14;100.00;97584.81;5008419;28;102549;-68
2022/12/27 10:12:36;;;;;;;1.77;1.67;;;;;;;6.22;100.00;97581.22;5009074;28;101724;-68
2022/12/27 10:15:26;;;;;;;4.53;2.37;;;;;;;6.44;100.00;97583.56;5009197;28;102438;-68
2022/12/27 10:18:03;;;;;;;3.20;2.33;;;;;;;6.32;100.00;97571.13;5012144;28;102571;-68
2022/12/27 10:20:46;;;;;;;3.10;2.00;;;;;;;6.45;100.00;97571.19;5008900;28;102936;-68
2022/12/27 10:23:18;;;;;;;3.17;2.30;;;;;;;6.49;100.00;97561.88;5008419;28;102481;-68
2022/12/27 10:25:47;;;;;;;2.70;1.67;;;;;;;6.41;100.00;97562.00;4993110;28;101708;-68
2022/12/27 10:28:16;;;;;;;3.73;1.97;;;;;;;6.47;100.00;97564.69;5007968;28;102349;-68
2022/12/27 10:30:45;;;;;;;1.90;1.80;;;;;;;6.46;100.00;97562.25;5007117;28;105377;-68
2022/12/27 10:33:20;;;;;;;4.53;2.87;;;;;;;6.47;100.00;97564.69;5009011;28;102495;-68
2022/12/27 10:35:48;;;;;;;3.63;2.40;;;;;;;6.70;100.00;97553.81;5008736;28;102319;-68
2022/12/27 10:38:15;;;;;;;2.63;1.93;;;;;;;6.54;100.00;97544.38;5007893;28;102574;-68
2022/12/27 10:40:51;;;;;;;3.33;2.00;;;;;;;6.57;100.00;97554.59;5009691;28;101864;-68
2022/12/27 10:43:21;;;;;;;3.00;1.40;;;;;;;6.47;100.00;97548.84;4995305;28;105819;-68
2022/12/27 10:45:50;;;;;;;3.30;2.43;;;;;;;6.29;100.00;97553.00;5012476;28;102339;-68
2022/12/27 10:48:20;;;;;;;3.43;1.77;;;;;;;6.22;100.00;97544.25;5007318;28;104885;-68
2022/12/27 10:50:50;;;;;;;2.90;1.80;;;;;;;6.30;100.00;97552.00;4990298;28;104955;-68
2022/12/27 10:53:36;;;;;;;2.80;1.90;;;;;;;6.55;100.00;97550.50;4995406;28;102065;-68
2022/12/27 10:56:09;;;;;;;1.87;1.77;;;;;;;6.41;100.00;97539.06;5012151;28;102780;-68
2022/12/27 10:58:40;;;;;;;4.03;2.50;;;;;;;6.46;100.00;97541.09;5011540;28;102573;-68
2022/12/27 11:01:16;;;;;;;4.37;2.50;;;;;;;6.45;100.00;97539.47;5014154;28;102379;-68
2022/12/27 11:03:42;;;;;;;2.67;2.17;;;;;;;6.67;100.00;97543.63;5011360;28;102780;-68
2022/12/27 11:06:19;;;;;;;3.87;1.93;;;;;;;6.55;100.00;97538.09;5012292;28;102414;-68
2022/12/27 11:08:46;;;;;;;2.57;1.97;;;;;;;6.75;100.00;97528.41;5011801;28;102918;-68
2022/12/27 11:11:15;;;;;;;2.80;1.70;;;;;;;6.68;100.00;97526.75;5011312;28;102884;-68
2022/12/27 11:13:43;;;;;;;2.63;1.90;;;;;;;7.00;100.00;97524.22;5006810;28;102492;-68
2022/12/27 11:16:19;;;;;;;4.47;2.57;;;;;;;7.13;100.00;97513.66;4992208;28;102240;-68
2022/12/27 11:18:50;;;;;;;2.27;1.50;;;;;;;7.34;100.00;97517.94;4998215;28;105515;-68
2022/12/27 11:21:18;;;;;;;1.40;1.40;;;;;;;7.15;100.00;97511.63;4994657;28;102095;-68
2022/12/27 11:23:49;;;;;;;3.33;1.73;;;;;;;7.33;100.00;97508.38;5013873;28;102517;-68
2022/12/27 11:26:23;;;;;;;1.53;1.20;;;;;;;7.30;100.00;97504.31;5011580;28;102295;-68
2022/12/27 11:28:54;;;;;;;2.53;1.43;;;;;;;7.59;100.00;97501.25;5011254;28;102882;-68
2022/12/27 11:31:32;;;;;;;2.53;1.70;;;;;;;7.87;100.00;97501.84;5010964;28;102566;-68
2022/12/27 11:34:02;;;;;;;2.10;1.60;;;;;;;7.78;100.00;97510.19;5005965;28;102140;-68
2022/12/27 11:36:32;;;;;;;2.87;1.80;;;;;;;7.53;100.00;97499.41;4991369;28;102431;-68
2022/12/27 11:39:00;;;;;;;5.73;2.03;;;;;;;7.30;100.00;97504.31;5002313;28;103935;-68
2022/12/27 11:41:41;;;;;;;1.87;1.70;;;;;;;7.25;100.00;97500.66;5010004;28;102184;-68
2022/12/27 11:44:16;;;;;;;1.60;1.50;;;;;;;7.38;100.00;97498.00;5009663;28;103806;-68
2022/12/27 11:46:50;;;;;;;3.40;1.70;;;;;;;7.27;100.00;97494.16;5014349;28;103109;-68
2022/12/27 11:49:21;;;;;;;1.80;1.70;;;;;;;7.16;100.00;97493.91;5011318;28;102757;-68
2022/12/27 11:52:10;;;;;;;1.83;1.70;;;;;;;7.18;100.00;97505.09;5005239;28;102997;-68
2022/12/27 11:54:58;;;;;;;2.53;1.57;;;;;;;7.39;100.00;97499.63;5002448;28;102736;-68
2022/12/27 11:57:37;;;;;;;2.53;2.00;;;;;;;7.56;100.00;97496.38;5002362;28;104229;-68
2022/12/27 12:00:13;;;;;;;2.27;1.60;;;;;;;7.49;100.00;97484.16;4995427;28;105298;-68
2022/12/27 12:03:16;;;;;;;3.07;1.30;;;;;;;7.56;100.00;97477.84;5006845;28;102594;-68
2022/12/27 12:06:01;;;;;;;2.27;1.23;;;;;;;7.64;100.00;97477.63;4991123;28;102312;-68
2022/12/27 12:09:01;;;;;;;2.03;1.40;;;;;;;7.52;100.00;97475.81;4999584;28;103128;-68
2022/12/27 12:11:45;;;;;;;1.57;1.47;;;;;;;7.57;100.00;97474.19;5014555;28;102507;-68
2022/12/27 12:14:46;;;;;;;2.20;1.40;;;;;;;7.71;100.00;97472.34;5008164;28;103870;-68
2022/12/27 12:17:34;;;;;;;1.73;1.00;;;;;;;7.82;100.00;97466.41;5000476;28;102657;-68
2022/12/27 12:20:22;;;;;;;1.67;1.20;;;;;;;7.84;100.00;97472.28;4998288;28;105163;-68
2022/12/27 12:23:06;;;;;;;1.97;1.20;;;;;;;7.99;100.00;97464.94;4995402;28;102726;-68
2022/12/27 12:25:55;;;;;;;1.93;1.23;;;;;;;7.78;100.00;97470.47;5010685;28;101741;-68
2022/12/27 12:28:54;;;;;;;1.90;1.07;;;;;;;7.67;100.00;97468.47;5010482;28;102419;-68
2022/12/27 12:31:35;;;;;;;2.13;1.70;;;;;;;7.67;100.00;97468.47;5005153;28;103998;-68
2022/12/27 12:34:16;;;;;;;1.60;1.30;;;;;;;7.82;100.00;97469.06;5005958;28;101848;-68
2022/12/27 12:37:01;;;;;;;3.30;0.83;;;;;;;7.69;100.00;97466.44;5012058;28;104049;-68
2022/12/27 12:39:47;;;;;;;1.00;1.00;;;;;;;7.81;100.00;97465.56;5009034;28;101908;-68
2022/12/27 12:42:21;;;;;;;1.77;1.00;;;;;;;7.85;100.00;97450.91;5008321;28;104294;-67
2022/12/27 12:45:29;;;;;;;1.60;1.10;;;;;;;7.89;100.00;97453.97;5007390;28;104218;-68
2022/12/27 12:48:33;;;;;;;1.40;1.20;;;;;;;7.72;100.00;97455.41;5009097;28;101909;-68
2022/12/27 12:51:18;;;;;;;1.37;1.20;;;;;;;7.93;100.00;97457.81;5008652;28;105314;-68
2022/12/27 12:54:00;;;;;;;1.30;1.20;;;;;;;7.95;100.00;97461.06;5009513;28;102531;-68
2022/12/27 12:56:48;;;;;;;2.03;1.30;;;;;;;8.00;100.00;97454.13;5009817;28;103021;-68
2022/12/27 12:59:29;;;;;;;1.47;1.20;;;;;;;8.10;100.00;97443.94;5008884;28;105117;-68
2022/12/27 13:02:15;;;;;;;2.33;1.30;;;;;;;8.05;100.00;97434.97;5013192;28;102498;-68
2022/12/27 13:05:12;;;;;;;2.67;1.30;;;;;;;7.83;100.00;97442.38;5009888;28;102438;-68
2022/12/27 13:07:57;;;;;;;2.27;1.50;;;;;;;7.67;100.00;97442.00;5009446;28;103027;-68
2022/12/27 13:10:56;;;;;;;1.30;1.20;;;;;;;7.58;100.00;97430.00;5008800;28;102177;-68
2022/12/27 13:13:34;;;;;;;2.10;1.50;;;;;;;7.64;100.00;97435.28;5009312;28;102329;-68
2022/12/27 13:16:20;;;;;;;2.53;1.50;;;;;;;7.60;100.00;97426.13;5008840;28;102647;-68
2022/12/27 13:18:58;;;;;;;3.57;1.60;;;;;;;7.51;100.00;97426.53;5006971;28;101961;-67
2022/12/27 13:21:40;;;;;;;1.67;1.57;;;;;;;7.70;100.00;97420.41;5007882;28;105148;-67
2022/12/27 13:24:35;;;;;;;3.13;1.57;;;;;;;7.72;100.00;97419.19;5013547;28;103025;-65